Time;durP1;ratioP1;P1;durP2;ratioP2;P2;SDS_P1;SDS_P2;PMS_P1;PMS_P2;Temp;Humidity;BMP_temperature;BMP_pressure;BME280_temperature;BME280_humidity;BME280_pressure;Samples;Min_cycle;Max_cycle;Signal;HPM_P1;HPM_P2
2024/04/20 00:00:22;;;;;;;3.67;2.67;;;;;;;-1.18;100.00;101126.66;5455118;26;20002;-74
2024/04/20 00:02:50;;;;;;;3.15;2.65;;;;;;;-1.22;100.00;101131.31;5421588;26;20007;-73
2024/04/20 00:05:15;;;;;;;4.38;2.80;;;;;;;-1.58;100.00;101084.75;5390094;26;19995;-73
2024/04/20 00:07:41;;;;;;;4.28;2.75;;;;;;;-1.31;100.00;101126.72;5421051;26;20067;-72
2024/04/20 00:10:07;;;;;;;4.75;2.90;;;;;;;-1.69;100.00;101061.81;5390405;26;20380;-73
2024/04/20 00:12:32;;;;;;;3.70;2.88;;;;;;;-1.70;100.00;101061.91;5417927;26;19991;-73
2024/04/20 00:14:58;;;;;;;4.90;2.55;;;;;;;-1.43;100.00;101109.16;5419750;26;20465;-73
2024/04/20 00:17:23;;;;;;;2.92;2.47;;;;;;;-1.21;100.00;101132.16;5420124;26;19992;-72
2024/04/20 00:19:49;;;;;;;3.55;2.65;;;;;;;-1.24;100.00;101137.66;5390184;26;19995;-72
2024/04/20 00:22:15;;;;;;;3.30;2.78;;;;;;;-1.47;100.00;101099.78;5419839;26;20006;-72
2024/04/20 00:24:40;;;;;;;3.42;2.35;;;;;;;-1.32;100.00;101119.75;5417486;26;20006;-72
2024/04/20 00:27:06;;;;;;;3.03;2.40;;;;;;;-1.27;100.00;101130.81;5423312;26;19991;-73
2024/04/20 00:29:32;;;;;;;3.92;2.50;;;;;;;-1.32;100.00;101140.06;5423645;26;19991;-72
2024/04/20 00:31:58;;;;;;;4.53;2.65;;;;;;;-1.47;100.00;101124.38;5455895;26;19991;-72
2024/04/20 00:34:23;;;;;;;4.55;2.80;;;;;;;-1.36;100.00;101134.13;5423086;26;20010;-73
2024/04/20 00:36:52;;;;;;;3.05;2.63;;;;;;;-1.35;100.00;101145.56;5454862;26;20455;-72
2024/04/20 00:39:18;;;;;;;3.45;2.40;;;;;;;-1.35;100.00;101145.56;5423648;26;19999;-72
2024/04/20 00:41:48;;;;;;;3.63;2.50;;;;;;;-1.34;100.00;101147.22;5394017;26;20058;-72
2024/04/20 00:44:13;;;;;;;4.97;2.85;;;;;;;-1.29;100.00;101150.34;5454823;26;20005;-71
2024/04/20 00:46:39;;;;;;;3.22;2.55;;;;;;;-1.11;100.00;101153.44;5456485;26;19994;-73
2024/04/20 00:49:05;;;;;;;3.78;2.80;;;;;;;-1.30;100.00;101130.19;5394108;26;20388;-72
2024/04/20 00:51:31;;;;;;;4.30;2.20;;;;;;;-1.28;100.00;101152.06;5424628;26;20005;-72
2024/04/20 00:53:59;;;;;;;3.83;2.50;;;;;;;-1.42;100.00;101146.00;5420317;26;20000;-72
2024/04/20 00:56:25;;;;;;;3.65;2.50;;;;;;;-1.46;100.00;101149.81;5389448;26;20002;-74
2024/04/20 00:58:51;;;;;;;4.60;2.80;;;;;;;-1.46;100.00;101154.25;5421451;26;19988;-72
2024/04/20 01:01:17;;;;;;;3.63;2.70;;;;;;;-1.49;100.00;101162.38;5419166;26;20007;-72
2024/04/20 01:03:42;;;;;;;4.82;2.55;;;;;;;-1.52;100.00;101155.56;5389101;26;20488;-73
2024/04/20 01:06:08;;;;;;;4.35;2.90;;;;;;;-1.56;100.00;101154.06;5421041;26;19996;-73
2024/04/20 01:08:34;;;;;;;3.03;2.63;;;;;;;-1.53;100.00;101158.28;5420435;26;19995;-73
2024/04/20 01:11:00;;;;;;;3.28;2.75;;;;;;;-1.78;100.00;101120.50;5445741;26;19995;-72
2024/04/20 01:13:26;;;;;;;4.47;2.60;;;;;;;-2.31;100.00;101040.03;5394815;26;20071;-72
2024/04/20 01:15:52;;;;;;;3.38;2.63;;;;;;;-1.58;100.00;101163.06;5455880;26;20024;-73
2024/04/20 01:18:18;;;;;;;4.35;3.20;;;;;;;-1.60;100.00;101164.97;5466297;26;19995;-75
2024/04/20 01:20:44;;;;;;;3.42;2.90;;;;;;;-1.64;100.00;101159.06;5467859;26;20337;-73
2024/04/20 01:23:10;;;;;;;3.97;2.75;;;;;;;-1.70;100.00;101162.16;5427142;26;19990;-72
2024/04/20 01:25:37;;;;;;;4.10;3.13;;;;;;;-1.80;100.00;101154.06;5423860;26;20015;-73
2024/04/20 01:28:04;;;;;;;3.97;2.90;;;;;;;-1.75;100.00;101166.94;5424047;26;20064;-73
2024/04/20 01:30:29;;;;;;;3.58;2.97;;;;;;;-1.80;100.00;101187.50;5424494;26;19991;-73
2024/04/20 01:32:55;;;;;;;5.35;2.88;;;;;;;-1.85;100.00;101179.06;5423316;26;20333;-73
2024/04/20 01:35:21;;;;;;;4.13;3.17;;;;;;;-1.93;100.00;101172.56;5415991;26;20006;-74
2024/04/20 01:37:46;;;;;;;4.90;3.38;;;;;;;-2.06;100.00;101153.28;5387531;26;19987;-73
2024/04/20 01:40:12;;;;;;;5.53;3.13;;;;;;;-1.96;100.00;101183.31;5419478;26;20003;-73
2024/04/20 01:42:37;;;;;;;4.88;3.30;;;;;;;-2.08;100.00;101168.41;5387927;26;20003;-72
2024/04/20 01:45:03;;;;;;;4.13;3.30;;;;;;;-2.21;100.00;101141.22;5417032;26;20000;-73
2024/04/20 01:47:29;;;;;;;3.65;3.00;;;;;;;-1.98;100.00;101179.97;5386153;26;19996;-72
2024/04/20 01:49:55;;;;;;;4.78;3.28;;;;;;;-2.02;100.00;101183.78;5388000;26;19991;-73
2024/04/20 01:52:20;;;;;;;4.70;3.42;;;;;;;-2.05;100.00;101183.13;5380758;26;19992;-74
2024/04/20 01:54:46;;;;;;;5.38;3.20;;;;;;;-2.39;100.00;101119.63;5368580;26;19999;-74
2024/04/20 01:57:11;;;;;;;4.57;3.05;;;;;;;-2.07;100.00;101177.16;5418875;26;20018;-73
2024/04/20 01:59:37;;;;;;;5.50;2.78;;;;;;;-2.08;100.00;101189.50;5448165;26;20072;-74
2024/04/20 02:02:02;;;;;;;4.70;3.13;;;;;;;-2.13;100.00;101186.31;5447506;26;20338;-72
2024/04/20 02:04:28;;;;;;;4.43;2.92;;;;;;;-2.15;100.00;101193.50;5446452;26;20077;-73
2024/04/20 02:06:55;;;;;;;4.97;3.50;;;;;;;-2.16;100.00;101197.91;5447408;26;19995;-72
2024/04/20 02:09:21;;;;;;;5.50;3.10;;;;;;;-2.17;100.00;101201.50;5419528;26;19999;-73
2024/04/20 02:11:46;;;;;;;4.25;3.25;;;;;;;-2.20;100.00;101200.88;5424422;26;20000;-73
2024/04/20 02:14:11;;;;;;;5.00;3.47;;;;;;;-2.51;100.00;101150.31;5462678;26;20046;-74
2024/04/20 02:16:37;;;;;;;4.90;3.47;;;;;;;-2.45;100.00;101146.38;5395127;26;20062;-72
2024/04/20 02:19:03;;;;;;;4.35;3.50;;;;;;;-2.23;100.00;101193.19;5412337;26;20447;-72
2024/04/20 02:21:28;;;;;;;5.05;3.33;;;;;;;-2.26;100.00;101201.31;5421425;26;20000;-72
2024/04/20 02:23:54;;;;;;;3.90;3.25;;;;;;;-2.32;100.00;101199.94;5390034;26;20019;-73
2024/04/20 02:26:19;;;;;;;5.88;3.00;;;;;;;-2.42;100.00;101189.22;5421293;26;20006;-72
2024/04/20 02:28:45;;;;;;;3.83;3.03;;;;;;;-2.36;100.00;101211.63;5449058;26;19995;-74
2024/04/20 02:31:10;;;;;;;5.75;3.28;;;;;;;-2.57;100.00;101177.06;5421985;26;20003;-73
2024/04/20 02:33:36;;;;;;;4.22;3.47;;;;;;;-2.43;100.00;101216.50;5390821;26;19995;-74
2024/04/20 02:36:01;;;;;;;4.80;3.10;;;;;;;-2.46;100.00;101214.06;5423229;26;20006;-73
2024/04/20 02:38:27;;;;;;;5.45;3.17;;;;;;;-2.58;100.00;101199.13;5422437;26;20003;-72
2024/04/20 02:40:53;;;;;;;7.00;3.60;;;;;;;-2.47;100.00;101216.81;5422832;26;20466;-72
2024/04/20 02:43:19;;;;;;;4.88;3.38;;;;;;;-2.47;100.00;101220.28;5423060;26;19987;-73
2024/04/20 02:45:44;;;;;;;4.60;3.03;;;;;;;-2.51;100.00;101226.72;5422322;26;19995;-72
2024/04/20 02:48:10;;;;;;;8.93;3.58;;;;;;;-2.76;100.00;101181.91;5450942;26;19991;-74
2024/04/20 02:50:35;;;;;;;5.28;3.40;;;;;;;-2.58;100.00;101214.06;5451309;26;20322;-74
2024/04/20 02:53:01;;;;;;;5.95;3.90;;;;;;;-2.58;100.00;101216.69;5450782;26;19996;-72
2024/04/20 02:55:27;;;;;;;5.32;3.50;;;;;;;-2.68;100.00;101206.78;5419253;26;20011;-72
2024/04/20 02:57:52;;;;;;;5.03;3.85;;;;;;;-2.60;100.00;101217.66;5389322;26;20002;-74
2024/04/20 03:00:18;;;;;;;6.05;3.83;;;;;;;-2.73;100.00;101205.41;5421712;26;20015;-72
2024/04/20 03:02:43;;;;;;;5.55;3.95;;;;;;;-2.62;100.00;101224.81;5450788;26;20343;-72
2024/04/20 03:05:08;;;;;;;6.03;3.80;;;;;;;-2.68;100.00;101232.25;5421939;26;20010;-72
2024/04/20 03:07:34;;;;;;;8.43;3.40;;;;;;;-2.69;100.00;101222.69;5421075;26;19995;-74
2024/04/20 03:09:59;;;;;;;4.25;3.42;;;;;;;-2.75;100.00;101217.81;5449815;26;20080;-74
2024/04/20 03:12:25;;;;;;;4.50;3.20;;;;;;;-2.71;100.00;101235.97;5450597;26;19996;-73
2024/04/20 03:14:51;;;;;;;4.20;3.20;;;;;;;-2.78;100.00;101228.56;5449133;26;20007;-74
2024/04/20 03:17:16;;;;;;;5.18;3.28;;;;;;;-2.77;100.00;101241.66;5449632;26;20069;-72
2024/04/20 03:19:42;;;;;;;4.95;3.33;;;;;;;-2.83;100.00;101232.34;5418406;26;19995;-72
2024/04/20 03:22:10;;;;;;;5.05;3.28;;;;;;;-2.85;100.00;101229.00;5417956;26;20096;-72
2024/04/20 03:24:35;;;;;;;4.28;3.28;;;;;;;-2.89;100.00;101224.03;5390157;26;20052;-72
2024/04/20 03:27:01;;;;;;;5.70;3.22;;;;;;;-2.86;100.00;101231.72;5420361;26;19992;-73
2024/04/20 03:29:26;;;;;;;5.70;3.10;;;;;;;-2.88;100.00;101229.19;5390963;26;19996;-72
2024/04/20 03:31:52;;;;;;;4.57;3.35;;;;;;;-2.90;100.00;101227.59;5420917;26;19995;-74
2024/04/20 03:34:17;;;;;;;4.60;3.28;;;;;;;-3.00;100.00;101216.84;5420792;26;19988;-74
2024/04/20 03:36:43;;;;;;;4.82;3.35;;;;;;;-2.94;100.00;101232.25;5421241;26;20046;-73
2024/04/20 03:39:13;;;;;;;5.45;3.25;;;;;;;-2.93;100.00;101241.81;5419473;26;20045;-73
2024/04/20 03:41:39;;;;;;;4.38;3.25;;;;;;;-2.99;100.00;101226.41;5450286;26;20002;-72
2024/04/20 03:44:05;;;;;;;5.00;3.50;;;;;;;-2.94;100.00;101219.06;5450297;26;19992;-73
2024/04/20 03:46:31;;;;;;;4.00;3.25;;;;;;;-2.91;100.00;101237.31;5451059;26;20011;-73
2024/04/20 03:48:57;;;;;;;5.13;3.50;;;;;;;-2.88;100.00;101242.38;5421619;26;20010;-72
2024/04/20 03:51:22;;;;;;;5.68;3.55;;;;;;;-2.88;100.00;101247.63;5448796;26;20000;-75
2024/04/20 03:53:48;;;;;;;7.43;3.45;;;;;;;-2.88;100.00;101245.00;5449423;26;20002;-73
2024/04/20 03:56:13;;;;;;;4.55;3.38;;;;;;;-2.86;100.00;101250.16;5421984;26;20334;-72
2024/04/20 03:58:39;;;;;;;4.50;3.55;;;;;;;-2.85;100.00;101250.06;5389802;26;20275;-73
2024/04/20 04:01:04;;;;;;;5.80;3.30;;;;;;;-2.84;100.00;101243.84;5361467;26;20335;-73
2024/04/20 04:03:30;;;;;;;4.95;3.13;;;;;;;-2.81;100.00;101248.06;5391914;26;20432;-72
2024/04/20 04:05:56;;;;;;;4.60;3.38;;;;;;;-2.74;100.00;101251.13;5362553;26;19995;-72
2024/04/20 04:08:23;;;;;;;4.70;3.30;;;;;;;-2.91;100.00;101223.31;5423150;26;19992;-73
2024/04/20 04:10:48;;;;;;;4.28;3.53;;;;;;;-2.23;100.00;101252.00;5422635;26;19991;-72
2024/04/20 04:13:14;;;;;;;5.80;4.10;;;;;;;-1.32;100.00;101250.91;5421096;26;20010;-73
2024/04/20 04:15:41;;;;;;;5.53;3.58;;;;;;;-0.76;100.00;101237.97;5389307;26;20002;-72
2024/04/20 04:18:10;;;;;;;4.00;3.15;;;;;;;-0.19;100.00;101223.06;5389492;26;20007;-73
2024/04/20 04:20:36;;;;;;;5.97;3.67;;;;;;;0.53;100.00;101251.75;5376725;26;20001;-74
2024/04/20 04:23:03;;;;;;;5.78;3.97;;;;;;;0.84;100.00;101248.31;5406168;26;20066;-73
2024/04/20 04:25:32;;;;;;;8.23;5.30;;;;;;;0.75;100.00;101257.00;5418310;26;19994;-72
2024/04/20 04:28:00;;;;;;;9.07;5.38;;;;;;;0.63;100.00;101257.97;5421958;26;19995;-72
2024/04/20 04:30:26;;;;;;;7.90;5.35;;;;;;;0.56;100.00;101238.25;5367020;26;19996;-72
2024/04/20 04:32:51;;;;;;;7.05;4.40;;;;;;;0.83;100.00;101251.94;5397944;26;20017;-73
2024/04/20 04:35:17;;;;;;;4.38;3.45;;;;;;;0.38;100.00;101254.66;5367820;26;19995;-72
2024/04/20 04:37:43;;;;;;;4.20;3.25;;;;;;;-0.03;100.00;101253.47;5422792;26;19996;-72
2024/04/20 04:40:09;;;;;;;3.30;2.80;;;;;;;-0.38;100.00;101263.28;5421239;26;19992;-74
2024/04/20 04:42:34;;;;;;;7.32;3.33;;;;;;;-0.62;100.00;101260.72;5390167;26;19991;-73
2024/04/20 04:45:00;;;;;;;5.65;3.60;;;;;;;-0.80;100.00;101255.81;5360840;26;19999;-73
2024/04/20 04:47:26;;;;;;;5.18;3.50;;;;;;;-1.04;100.00;101233.88;5389868;26;20002;-72
2024/04/20 04:49:51;;;;;;;5.57;3.20;;;;;;;-0.85;100.00;101273.00;5421558;26;20003;-74
2024/04/20 04:52:17;;;;;;;4.72;3.20;;;;;;;-0.69;100.00;101272.69;5420767;26;20808;-72
2024/04/20 04:54:43;;;;;;;4.57;3.33;;;;;;;-0.50;100.00;101235.97;5421153;26;19991;-72
2024/04/20 04:57:09;;;;;;;6.07;3.30;;;;;;;0.35;100.00;101272.59;5388534;26;19999;-72
2024/04/20 04:59:35;;;;;;;3.55;3.22;;;;;;;0.77;100.00;101284.22;5418772;26;20438;-72
2024/04/20 05:02:00;;;;;;;3.58;2.95;;;;;;;0.64;100.00;101268.47;5389257;26;19991;-73
2024/04/20 05:04:29;;;;;;;4.03;3.17;;;;;;;0.47;100.00;101283.06;5417805;26;20014;-73
2024/04/20 05:06:54;;;;;;;4.97;3.13;;;;;;;0.83;100.00;101281.06;5422020;26;20011;-74
2024/04/20 05:09:20;;;;;;;4.88;3.08;;;;;;;0.87;100.00;101282.50;5389476;26;19995;-73
2024/04/20 05:11:46;;;;;;;3.83;3.08;;;;;;;0.75;100.00;101280.84;5447968;26;20006;-73
2024/04/20 05:14:12;;;;;;;3.60;3.20;;;;;;;0.49;100.00;101280.28;5420885;26;19991;-72
2024/04/20 05:16:37;;;;;;;4.60;3.22;;;;;;;0.45;100.00;101284.97;5421671;26;20007;-72
2024/04/20 05:19:05;;;;;;;4.32;3.13;;;;;;;0.59;100.00;101272.44;5449261;26;19995;-72
2024/04/20 05:21:31;;;;;;;4.07;2.90;;;;;;;0.58;100.00;101282.19;5449314;26;20011;-72
2024/04/20 05:23:56;;;;;;;3.97;3.03;;;;;;;0.61;100.00;101286.41;5390290;26;20326;-74
2024/04/20 05:26:23;;;;;;;4.65;3.17;;;;;;;0.56;100.00;101272.69;5394652;26;20016;-72
2024/04/20 05:28:49;;;;;;;6.45;3.67;;;;;;;0.54;100.00;101272.00;5423468;26;20003;-72
2024/04/20 05:31:15;;;;;;;4.85;3.28;;;;;;;0.61;100.00;101273.16;5450792;26;20011;-71
2024/04/20 05:33:40;;;;;;;3.83;3.30;;;;;;;0.76;100.00;101295.75;5387978;26;20459;-70
2024/04/20 05:36:06;;;;;;;4.25;3.35;;;;;;;0.74;100.00;101295.06;5418728;26;19991;-73
2024/04/20 05:38:32;;;;;;;5.38;3.42;;;;;;;0.73;100.00;101296.03;5419186;26;20000;-70
2024/04/20 05:41:06;;;;;;;4.45;3.30;;;;;;;0.74;100.00;101295.06;5387123;26;20057;-70
2024/04/20 05:43:32;;;;;;;4.30;3.20;;;;;;;0.82;100.00;101295.28;5419680;26;19991;-70
2024/04/20 05:45:59;;;;;;;3.70;2.90;;;;;;;0.89;100.00;101307.09;5389962;26;19992;-73
2024/04/20 05:48:25;;;;;;;4.07;3.22;;;;;;;1.05;100.00;101296.06;5421991;26;20035;-71
2024/04/20 05:50:50;;;;;;;4.18;3.17;;;;;;;1.23;100.00;101299.03;5422629;26;20064;-71
2024/04/20 05:53:16;;;;;;;6.10;3.25;;;;;;;1.33;100.00;101292.00;5418985;26;20821;-71
2024/04/20 05:55:42;;;;;;;5.50;3.60;;;;;;;1.41;100.00;101301.94;5420187;26;20023;-71
2024/04/20 05:58:07;;;;;;;5.88;3.75;;;;;;;1.62;100.00;101309.91;5448469;26;20010;-70
2024/04/20 06:00:33;;;;;;;5.35;3.20;;;;;;;1.26;100.00;101190.09;5419628;26;19996;-70
2024/04/20 06:02:58;;;;;;;3.95;3.20;;;;;;;2.06;100.00;101268.16;5389468;26;19996;-71
2024/04/20 06:05:24;;;;;;;5.28;2.88;;;;;;;2.48;100.00;101297.25;5447032;26;20018;-70
2024/04/20 06:07:49;;;;;;;4.47;2.88;;;;;;;3.03;100.00;101305.66;5357355;26;20000;-71
2024/04/20 06:10:15;;;;;;;4.07;3.20;;;;;;;3.47;100.00;101298.94;5421000;26;20067;-72
2024/04/20 06:12:40;;;;;;;3.42;2.38;;;;;;;3.92;100.00;101308.16;5392616;26;19996;-72
2024/04/20 06:15:08;;;;;;;2.72;2.38;;;;;;;4.09;100.00;101312.72;5422591;26;20392;-71
2024/04/20 06:17:34;;;;;;;2.28;2.05;;;;;;;4.00;100.00;101309.09;5421586;26;20088;-71
2024/04/20 06:19:59;;;;;;;3.92;2.28;;;;;;;3.99;100.00;101311.91;5422010;26;20011;-72
2024/04/20 06:22:25;;;;;;;2.80;2.20;;;;;;;4.04;100.00;101320.31;5391220;26;20006;-70
2024/04/20 06:24:54;;;;;;;2.45;1.98;;;;;;;4.06;100.00;101318.34;5422454;26;19992;-72
2024/04/20 06:27:20;;;;;;;1.98;1.77;;;;;;;4.13;100.00;101316.78;5389604;26;19996;-72
2024/04/20 06:29:46;;;;;;;2.58;2.10;;;;;;;4.05;100.00;101305.19;5360725;26;20027;-72
2024/04/20 06:32:11;;;;;;;2.28;2.08;;;;;;;4.04;100.00;101300.81;5421773;26;20011;-72
2024/04/20 06:34:36;;;;;;;1.30;1.20;;;;;;;4.05;100.00;101287.38;5418942;26;20338;-71
2024/04/20 06:37:02;;;;;;;1.92;1.30;;;;;;;4.33;100.00;101311.38;5360530;26;20362;-71
2024/04/20 06:39:28;;;;;;;1.95;1.25;;;;;;;4.50;100.00;101323.94;5421880;26;20073;-74
2024/04/20 06:41:54;;;;;;;1.25;1.15;;;;;;;4.59;100.00;101320.38;5390015;26;19995;-72
2024/04/20 06:44:20;;;;;;;1.50;1.27;;;;;;;4.00;100.00;101225.72;5420552;26;20003;-72
2024/04/20 06:46:45;;;;;;;3.78;1.25;;;;;;;4.67;100.00;101333.84;5418869;26;20335;-71
2024/04/20 06:49:12;;;;;;;1.67;1.10;;;;;;;4.51;100.00;101330.97;5388435;26;19996;-73
2024/04/20 06:51:37;;;;;;;1.95;1.25;;;;;;;4.38;100.00;101335.78;5420090;26;20220;-71
2024/04/20 06:54:03;;;;;;;3.08;1.23;;;;;;;4.34;100.00;101334.38;5421378;26;20045;-71
2024/04/20 06:56:28;;;;;;;2.60;1.33;;;;;;;4.32;100.00;101333.69;5423129;26;20449;-72
2024/04/20 06:58:54;;;;;;;2.25;1.42;;;;;;;4.22;100.00;101315.06;5455202;26;20018;-71
2024/04/20 07:01:20;;;;;;;1.30;1.20;;;;;;;4.28;100.00;101332.31;5395380;26;19991;-72
2024/04/20 07:03:45;;;;;;;1.67;1.20;;;;;;;4.31;100.00;101330.19;5457200;26;20333;-72
2024/04/20 07:06:11;;;;;;;2.22;1.27;;;;;;;4.34;100.00;101331.69;5425138;26;20353;-72
2024/04/20 07:08:36;;;;;;;1.95;1.20;;;;;;;4.37;100.00;101318.97;5424443;26;20453;-73
2024/04/20 07:11:04;;;;;;;1.65;1.35;;;;;;;4.51;100.00;101330.97;5425082;26;19994;-71
2024/04/20 07:13:35;;;;;;;2.03;1.33;;;;;;;4.39;100.00;101305.47;5457240;26;19991;-71
2024/04/20 07:16:01;;;;;;;3.78;1.30;;;;;;;4.35;100.00;101291.59;5456263;26;19995;-71
2024/04/20 07:18:27;;;;;;;1.52;1.10;;;;;;;4.43;100.00;101312.19;5424828;26;20009;-71
2024/04/20 07:20:54;;;;;;;1.35;1.02;;;;;;;4.71;100.00;101342.38;5424974;26;19995;-72
2024/04/20 07:23:20;;;;;;;1.45;1.10;;;;;;;4.58;100.00;101321.38;5457512;26;20081;-72
2024/04/20 07:25:46;;;;;;;3.53;1.13;;;;;;;4.81;100.00;101355.66;5425269;26;19994;-71
2024/04/20 07:28:12;;;;;;;1.63;0.90;;;;;;;4.76;100.00;101364.09;5458757;26;20010;-71
2024/04/20 07:30:40;;;;;;;1.55;0.98;;;;;;;4.69;100.00;101363.84;5396257;26;20002;-71
2024/04/20 07:33:06;;;;;;;1.35;0.82;;;;;;;4.58;100.00;101356.03;5426877;26;20038;-72
2024/04/20 07:35:31;;;;;;;1.60;1.15;;;;;;;4.60;100.00;101374.53;5455711;26;20014;-72
2024/04/20 07:37:57;;;;;;;1.45;1.00;;;;;;;4.66;100.00;101377.44;5455061;26;20477;-72
2024/04/20 07:40:22;;;;;;;1.73;1.20;;;;;;;4.44;100.00;101341.38;5424876;26;20009;-71
2024/04/20 07:42:48;;;;;;;2.03;1.50;;;;;;;4.76;100.00;101388.06;5458631;26;20022;-73
2024/04/20 07:45:13;;;;;;;2.15;1.20;;;;;;;4.82;100.00;101384.00;5459406;26;19998;-73
2024/04/20 07:47:38;;;;;;;2.97;1.42;;;;;;;4.89;100.00;101383.25;5425434;26;20534;-72
2024/04/20 07:50:06;;;;;;;1.67;1.33;;;;;;;4.78;100.00;101393.28;5396196;26;19999;-71
2024/04/20 07:52:32;;;;;;;2.95;1.38;;;;;;;4.59;100.00;101386.19;5456934;26;19995;-72
2024/04/20 07:54:57;;;;;;;1.60;1.33;;;;;;;4.41;100.00;101391.44;5425991;26;20068;-72
2024/04/20 07:57:22;;;;;;;2.30;1.88;;;;;;;4.11;100.00;101387.16;5424000;26;20007;-73
2024/04/20 07:59:48;;;;;;;3.60;1.58;;;;;;;3.89;100.00;101393.63;5455518;26;20460;-72
2024/04/20 08:02:13;;;;;;;2.25;1.48;;;;;;;3.67;100.00;101395.56;5395048;26;20010;-72
2024/04/20 08:04:39;;;;;;;1.75;1.45;;;;;;;3.47;100.00;101402.69;5456364;26;20002;-73
2024/04/20 08:07:04;;;;;;;2.10;1.65;;;;;;;3.32;100.00;101395.28;5423637;26;20010;-73
2024/04/20 08:09:29;;;;;;;2.67;1.45;;;;;;;3.30;100.00;101400.72;5424531;26;20006;-73
2024/04/20 08:11:55;;;;;;;1.98;1.27;;;;;;;3.31;100.00;101405.06;5426331;26;19995;-73
2024/04/20 08:14:20;;;;;;;3.05;1.80;;;;;;;3.38;100.00;101411.53;5457340;26;19987;-76
2024/04/20 08:16:46;;;;;;;3.75;1.90;;;;;;;3.63;100.00;101407.47;5397439;26;20484;-76
2024/04/20 08:19:11;;;;;;;3.13;1.92;;;;;;;3.98;100.00;101404.28;5427768;26;20346;-74
2024/04/20 08:21:37;;;;;;;2.55;1.88;;;;;;;4.23;100.00;101397.50;5426303;26;20494;-73
2024/04/20 08:24:03;;;;;;;2.50;1.80;;;;;;;4.28;100.00;101398.91;5428310;26;19999;-73
2024/04/20 08:26:31;;;;;;;3.00;2.08;;;;;;;4.46;100.00;101402.50;5428437;26;20005;-72
2024/04/20 08:28:56;;;;;;;3.22;2.08;;;;;;;4.56;100.00;101397.13;5458719;26;20027;-72
2024/04/20 08:31:22;;;;;;;2.42;1.98;;;;;;;4.66;100.00;101409.44;5398654;26;20002;-73
2024/04/20 08:33:47;;;;;;;2.42;1.77;;;;;;;4.47;100.00;101385.53;5424404;26;19999;-73
2024/04/20 08:36:12;;;;;;;2.15;1.92;;;;;;;4.59;100.00;101412.84;5393553;26;20068;-74
2024/04/20 08:38:38;;;;;;;2.20;2.00;;;;;;;4.67;100.00;101411.13;5392641;26;20002;-74
2024/04/20 08:41:05;;;;;;;2.30;1.67;;;;;;;4.78;100.00;101414.59;5393039;26;20006;-72
2024/04/20 08:43:32;;;;;;;2.30;1.90;;;;;;;4.81;100.00;101416.97;5428604;26;19995;-73
2024/04/20 08:46:02;;;;;;;2.00;1.80;;;;;;;4.70;100.00;101418.84;5423836;26;19995;-73
2024/04/20 08:48:28;;;;;;;2.30;1.92;;;;;;;4.63;100.00;101417.72;5390526;26;20395;-74
2024/04/20 08:50:55;;;;;;;1.98;1.70;;;;;;;4.62;100.00;101426.72;5364626;26;20008;-79
2024/04/20 08:53:21;;;;;;;3.47;2.00;;;;;;;4.66;100.00;101428.09;5397464;26;19995;-76
2024/04/20 08:55:49;;;;;;;2.22;1.80;;;;;;;4.39;100.00;101390.75;5432348;26;20020;-76
2024/04/20 08:58:15;;;;;;;1.98;1.67;;;;;;;4.63;100.00;101438.22;5401987;26;20059;-77
2024/04/20 09:00:42;;;;;;;1.70;1.60;;;;;;;4.60;100.00;101439.38;5425555;26;19999;-76
2024/04/20 09:03:08;;;;;;;3.95;1.65;;;;;;;4.56;100.00;101437.13;5394079;26;20000;-75
2024/04/20 09:05:34;;;;;;;1.77;1.48;;;;;;;4.56;100.00;101437.94;5392489;26;20007;-76
2024/04/20 09:08:01;;;;;;;2.60;1.67;;;;;;;4.53;100.00;101438.22;5392291;26;19991;-72
2024/04/20 09:10:29;;;;;;;5.28;3.53;;;;;;;4.66;100.00;101437.91;5421560;26;20007;-76
2024/04/20 09:12:56;;;;;;;5.22;3.97;;;;;;;4.88;100.00;101437.56;5421144;26;20006;-76
2024/04/20 09:15:22;;;;;;;3.40;2.35;;;;;;;4.95;100.00;101433.31;5421226;26;20298;-72
2024/04/20 09:17:47;;;;;;;3.92;2.08;;;;;;;5.03;100.00;101448.59;5389633;26;19999;-74
2024/04/20 09:20:13;;;;;;;3.35;1.95;;;;;;;4.83;100.00;101441.66;5330322;26;20444;-74
2024/04/20 09:22:38;;;;;;;2.25;1.70;;;;;;;4.60;100.00;101449.16;5421197;26;20523;-75
2024/04/20 09:25:05;;;;;;;2.17;1.65;;;;;;;4.35;100.00;101445.31;5390682;26;20000;-73
2024/04/20 09:27:32;;;;;;;2.63;1.70;;;;;;;4.07;100.00;101444.34;5420309;26;19996;-73
2024/04/20 09:30:03;;;;;;;2.63;2.00;;;;;;;4.19;100.00;101444.06;5420441;26;19995;-74
2024/04/20 09:32:30;;;;;;;2.22;1.85;;;;;;;4.20;100.00;101419.09;5422286;26;20011;-78
2024/04/20 09:34:56;;;;;;;2.60;2.17;;;;;;;4.53;100.00;101446.22;5389184;26;20014;-75
2024/04/20 09:37:22;;;;;;;3.83;1.88;;;;;;;4.60;100.00;101447.34;5418959;26;20007;-71
2024/04/20 09:39:47;;;;;;;3.03;2.00;;;;;;;4.52;100.00;101420.56;5386400;26;20023;-71
2024/04/20 09:42:17;;;;;;;2.38;1.77;;;;;;;4.50;100.00;101403.88;5416756;26;20128;-71
2024/04/20 09:44:43;;;;;;;2.60;2.00;;;;;;;4.83;100.00;101437.16;5416136;26;20003;-71
2024/04/20 09:47:11;;;;;;;2.85;2.08;;;;;;;4.94;100.00;101433.50;5384972;26;19995;-70
2024/04/20 09:49:37;;;;;;;2.20;2.00;;;;;;;4.94;100.00;101423.66;5385904;26;19996;-74
2024/04/20 09:52:13;;;;;;;3.10;1.88;;;;;;;5.10;100.00;101439.03;5388138;26;19987;-70
2024/04/20 09:54:52;;;;;;;2.35;2.10;;;;;;;5.16;100.00;101443.75;5453730;26;19995;-72
2024/04/20 09:57:20;;;;;;;3.92;2.22;;;;;;;5.28;100.00;101446.25;5455546;26;20011;-72
2024/04/20 09:59:47;;;;;;;3.10;2.22;;;;;;;5.43;100.00;101444.75;5423304;26;20014;-74
2024/04/20 10:02:15;;;;;;;2.75;2.33;;;;;;;5.39;100.00;101425.50;5402362;26;20015;-73
2024/04/20 10:04:41;;;;;;;2.53;2.33;;;;;;;5.36;100.00;101447.19;5310872;26;20000;-71
2024/04/20 10:07:08;;;;;;;2.63;2.35;;;;;;;5.27;100.00;101444.56;5380782;26;19992;-71
2024/04/20 10:09:35;;;;;;;2.58;2.13;;;;;;;5.10;100.00;101412.34;5350709;26;20447;-71
2024/04/20 10:12:01;;;;;;;2.95;2.60;;;;;;;5.02;100.00;101401.56;5353794;26;19996;-73
2024/04/20 10:14:26;;;;;;;4.25;3.35;;;;;;;5.17;100.00;101428.59;5384151;26;20364;-72
2024/04/20 10:16:52;;;;;;;3.15;2.72;;;;;;;5.33;100.00;101402.13;5411322;26;20000;-74
2024/04/20 10:19:19;;;;;;;2.80;2.50;;;;;;;5.77;100.00;101428.91;5412159;26;19996;-70
2024/04/20 10:21:46;;;;;;;2.90;2.13;;;;;;;5.81;100.00;101421.44;5381124;26;20003;-73
2024/04/20 10:24:12;;;;;;;4.57;2.20;;;;;;;5.86;100.00;101419.13;5401604;26;20110;-73
2024/04/20 10:26:43;;;;;;;3.08;2.10;;;;;;;5.95;100.00;101412.06;5394573;26;20408;-75
2024/04/20 10:29:17;;;;;;;2.40;2.17;;;;;;;5.94;100.00;101405.06;5443118;26;20069;-72
2024/04/20 10:31:42;;;;;;;2.80;2.20;;;;;;;6.15;100.00;101412.72;5379896;26;20011;-72
2024/04/20 10:34:08;;;;;;;2.45;1.98;;;;;;;6.22;100.00;101411.94;5383199;26;20332;-74
2024/04/20 10:36:33;;;;;;;2.53;2.20;;;;;;;6.25;100.00;101413.47;5399238;26;20010;-74
2024/04/20 10:39:04;;;;;;;4.57;2.15;;;;;;;6.22;100.00;101408.44;5452819;26;19995;-75
2024/04/20 10:41:39;;;;;;;3.40;2.20;;;;;;;6.19;100.00;101398.06;5407070;26;20007;-74
2024/04/20 10:44:15;;;;;;;2.35;1.95;;;;;;;6.33;100.00;101406.38;5383661;26;20001;-73
2024/04/20 10:46:49;;;;;;;3.25;2.17;;;;;;;6.34;100.00;101413.38;5419161;26;20326;-73
2024/04/20 10:49:15;;;;;;;2.33;1.90;;;;;;;6.37;100.00;101414.91;5396423;26;20068;-72
2024/04/20 10:51:51;;;;;;;2.80;1.98;;;;;;;6.36;100.00;101415.91;5455906;26;20007;-73
2024/04/20 10:54:21;;;;;;;2.45;2.13;;;;;;;6.21;100.00;101382.72;5427197;26;19999;-74
2024/04/20 10:56:52;;;;;;;3.33;2.10;;;;;;;6.16;100.00;101368.97;5457941;26;19998;-72
2024/04/20 10:59:18;;;;;;;2.42;1.98;;;;;;;6.40;100.00;101411.91;5392230;26;20023;-74
2024/04/20 11:01:43;;;;;;;2.78;2.00;;;;;;;6.41;100.00;101402.91;5441899;26;20079;-73
2024/04/20 11:04:09;;;;;;;3.45;2.00;;;;;;;6.46;100.00;101389.06;5413888;26;19996;-73
2024/04/20 11:06:35;;;;;;;2.10;1.90;;;;;;;6.52;100.00;101399.97;5408765;26;20027;-73
2024/04/20 11:09:01;;;;;;;2.35;1.70;;;;;;;6.51;100.00;101398.28;5403523;26;20000;-73
2024/04/20 11:11:27;;;;;;;3.45;1.88;;;;;;;6.46;100.00;101386.41;5438379;26;20006;-72
2024/04/20 11:13:59;;;;;;;1.92;1.73;;;;;;;6.55;100.00;101407.66;5420368;26;19999;-72
2024/04/20 11:16:28;;;;;;;2.22;1.73;;;;;;;6.72;100.00;101399.72;5441516;26;20009;-72